Bow Clipper — LAUU4 — position and weather

sailwx.info

Track history (hours):
 
Tides and Currents Weather Stations Pressure Air Temp Water Temp Dewpoint Dewpoint Depression Visibility Wind Speed Wind Dir Waves Ship Positions

Bow Clipper

Last reported at 2016-May-18 03:33 UTC. Time now 2016-May-24 15:48 UTC.
Position N 29°21' W 094°48'.

Length 188 m; draft 6.1 m.

Type: Ship (hazmat cat B). MMSI: 258946991.

Date/timePositionNaut miles runAvg speedWind from/ knotsBaromVisibWave heightAir tempDewpointWater temp
2016-May-18 03:33N 29°21' W 094°48'  
2016-May-15 15:33N 29°22' W 094°55'5 5.4
2016-May-15 14:33N 29°22' W 094°49'13 5.4
2016-May-15 12:07N 29°20' W 094°34'0 0.0
2016-May-15 09:32N 29°20' W 094°34'0 0.0
2016-May-15 08:32N 29°20' W 094°34'0 0.0
2016-May-15 07:07N 29°20' W 094°34'0 0.0
2016-May-15 06:33N 29°20' W 094°34'0 0.0
2016-May-14 08:32N 29°20' W 094°34'0 0.0
2016-May-14 07:30N 29°20' W 094°34'0 0.0
2016-May-14 03:28N 29°20' W 094°34'11 5.2
2016-May-14 01:22N 29°21' W 094°46'1113.4
2016-May-14 00:33N 29°30' W 094°52'1212.3
2016-May-13 23:33N 29°41' W 094°59'7 7.1
2016-May-13 22:33N 29°45' W 095°06'0 0.4
2016-May-13 21:33N 29°45' W 095°06'0 0.0
2016-May-13 20:33N 29°45' W 095°06'0 0.0
2016-May-13 19:33N 29°45' W 095°06'0 0.0
2016-May-13 18:33N 29°45' W 095°06'0 0.0
2016-May-13 17:33N 29°45' W 095°06'0 0.0
2016-May-13 16:33N 29°45' W 095°06'0 0.0
2016-May-13 15:33N 29°45' W 095°06'0 0.0
2016-May-13 14:33N 29°45' W 095°06'0 0.0
2016-May-13 13:33N 29°45' W 095°06'0 0.0
2016-May-13 12:33N 29°45' W 095°06'0 0.0
2016-May-13 11:33N 29°45' W 095°06'0 0.0
2016-May-13 10:34N 29°45' W 095°06'0 0.0
2016-May-13 09:33N 29°45' W 095°06'0 0.0
2016-May-13 08:33N 29°45' W 095°06'0 0.0
2016-May-13 07:33N 29°45' W 095°06'0 0.0
2016-May-13 06:33N 29°45' W 095°06'0 0.0
2016-May-13 05:34N 29°45' W 095°06'0 0.0
2016-May-13 04:34N 29°45' W 095°06'0 0.0
2016-May-13 03:33N 29°45' W 095°06'0 0.0
2016-May-13 02:33N 29°45' W 095°06'0 0.0
2016-May-13 01:33N 29°45' W 095°06'0 0.0
2016-May-13 00:33N 29°45' W 095°06'0 0.0
2016-May-12 23:33N 29°45' W 095°06'0 0.0
2016-May-12 22:33N 29°45' W 095°06'0 0.0
2016-May-12 21:32N 29°45' W 095°06'0 0.0
2016-May-12 19:33N 29°45' W 095°06'0 0.0
2016-May-12 18:33N 29°45' W 095°06'0 0.0
2016-May-12 17:33N 29°45' W 095°06'0 0.0
2016-May-12 16:33N 29°45' W 095°06'0 0.0
2016-May-12 15:33N 29°45' W 095°06'0 0.0
2016-May-12 14:33N 29°45' W 095°06'0 0.0
2016-May-12 13:33N 29°45' W 095°06'0 0.0
2016-May-12 12:33N 29°45' W 095°06'0 0.0
2016-May-12 11:33N 29°45' W 095°06'0 0.0
2016-May-12 10:33N 29°45' W 095°06'0 0.0
2016-May-12 09:33N 29°45' W 095°06'0 0.0
2016-May-12 08:33N 29°45' W 095°06'0 0.0
2016-May-12 07:33N 29°45' W 095°06'0 0.0
2016-May-12 06:33N 29°45' W 095°06'0 0.0
2016-May-12 05:33N 29°45' W 095°06'0 0.0
2016-May-12 04:33N 29°45' W 095°06'0 0.0
2016-May-12 03:33N 29°45' W 095°06'0 0.0
2016-May-12 02:33N 29°45' W 095°06'0 0.0
2016-May-12 01:33N 29°45' W 095°06'2 0.1
2016-May-11 07:32N 29°44' W 095°08'5 5.1
2016-May-11 06:33N 29°44' W 095°02'1010.3
2016-May-11 05:33N 29°35' W 094°56'1312.4
2016-May-11 04:30N 29°24' W 094°49'1111.0
2016-May-11 03:28N 29°19' W 094°37'4 4.5
2016-May-11 02:28N 29°21' W 094°33'0 0.0
2016-May-11 01:33N 29°21' W 094°33'0 0.0
2016-May-11 00:32N 29°21' W 094°33'0 0.0
2016-May-10 23:32N 29°21' W 094°33'0 0.0
2016-May-10 21:30N 29°21' W 094°33'0 0.0
2016-May-10 20:19N 29°21' W 094°33'0 0.0
2016-May-10 19:31N 29°21' W 094°33'0 0.0
2016-May-10 08:09N 29°21' W 094°33'15 5.9
2016-May-10 05:32N 29°25' W 094°50'1313.3
2016-May-10 04:34N 29°36' W 094°57'4 3.5
2016-May-10 03:32N 29°37' W 095°01'0 0.0
2016-May-10 02:32N 29°37' W 095°01'0 0.0
2016-May-10 01:29N 29°37' W 095°01'0 0.0
2016-May-10 00:32N 29°37' W 095°01'0 0.0
2016-May-09 23:28N 29°37' W 095°01'0 0.0
2016-May-09 22:28N 29°37' W 095°01'0 0.0
2016-May-09 21:28N 29°37' W 095°01'0 0.0
2016-May-09 18:31N 29°37' W 095°01'0 0.0
2016-May-09 17:13N 29°37' W 095°01'0 0.0
2016-May-09 16:31N 29°37' W 095°01'0 0.0
2016-May-09 15:31N 29°37' W 095°01'0 0.0
2016-May-09 14:31N 29°37' W 095°01'0 0.0
2016-May-09 13:22N 29°37' W 095°01'0 0.0
2016-May-09 12:31N 29°37' W 095°01'0 0.0
2016-May-09 11:28N 29°37' W 095°01'0 0.0
2016-May-09 10:31N 29°37' W 095°01'0 0.0
2016-May-09 09:31N 29°37' W 095°01'0 0.0
2016-May-09 08:22N 29°37' W 095°01'0 0.0
2016-May-09 07:22N 29°37' W 095°01'0 0.0
2016-May-09 06:22N 29°37' W 095°01'0 0.0
2016-May-09 05:31N 29°37' W 095°01'0 0.0
2016-May-09 04:28N 29°37' W 095°01'0 0.0
2016-May-09 03:16N 29°37' W 095°01'0 0.0
2016-May-09 02:22N 29°37' W 095°01'0 0.0
2016-May-09 01:33N 29°37' W 095°01'0 0.0
2016-May-09 00:28N 29°37' W 095°01'0 0.0
2016-May-08 23:25N 29°37' W 095°01'0 0.0
2016-May-08 22:25N 29°37' W 095°01'0 0.0
2016-May-08 21:25N 29°37' W 095°01'0 0.0
2016-May-08 20:31N 29°37' W 095°01'0 0.0
2016-May-08 19:28N 29°37' W 095°01'0 0.0
2016-May-08 18:31N 29°37' W 095°01'0 0.0
2016-May-08 17:07N 29°37' W 095°01'0 0.0
2016-May-08 16:07N 29°37' W 095°01'0 0.0
2016-May-08 15:31N 29°37' W 095°01'0 0.0
2016-May-08 14:28N 29°37' W 095°01'0 0.0
2016-May-08 13:22N 29°37' W 095°01'0 0.0
2016-May-08 11:25N 29°37' W 095°01'0 0.0
2016-May-08 10:28N 29°37' W 095°01'0 0.0
2016-May-08 09:33N 29°37' W 095°01'1 1.2
2016-May-08 08:33N 29°37' W 094°60'10 9.7
2016-May-08 07:32N 29°30' W 094°52'  
Track history (hours):
 
Tides and Currents Weather Stations Pressure Air Temp Water Temp Dewpoint Dewpoint Depression Visibility Wind Speed Wind Dir Waves Ship Positions

Bow Clipper

Last reported at 2016-May-18 03:33 UTC. Time now 2016-May-24 15:48 UTC.
Position N 29°21' W 094°48'.

Length 188 m; draft 6.1 m.

Type: Ship (hazmat cat B). MMSI: 258946991.

Date/timePositionNaut miles runAvg speedWind from/ knotsBaromVisibWave heightAir tempDewpointWater temp
2016-May-18 03:33N 29°21' W 094°48'  
2016-May-15 15:33N 29°22' W 094°55'5 5.4
2016-May-15 14:33N 29°22' W 094°49'13 5.4
2016-May-15 12:07N 29°20' W 094°34'0 0.0
2016-May-15 09:32N 29°20' W 094°34'0 0.0
2016-May-15 08:32N 29°20' W 094°34'0 0.0
2016-May-15 07:07N 29°20' W 094°34'0 0.0
2016-May-15 06:33N 29°20' W 094°34'0 0.0
2016-May-14 08:32N 29°20' W 094°34'0 0.0
2016-May-14 07:30N 29°20' W 094°34'0 0.0
2016-May-14 03:28N 29°20' W 094°34'11 5.2
2016-May-14 01:22N 29°21' W 094°46'1113.4
2016-May-14 00:33N 29°30' W 094°52'1212.3
2016-May-13 23:33N 29°41' W 094°59'7 7.1
2016-May-13 22:33N 29°45' W 095°06'0 0.4
2016-May-13 21:33N 29°45' W 095°06'0 0.0
2016-May-13 20:33N 29°45' W 095°06'0 0.0
2016-May-13 19:33N 29°45' W 095°06'0 0.0
2016-May-13 18:33N 29°45' W 095°06'0 0.0
2016-May-13 17:33N 29°45' W 095°06'0 0.0
2016-May-13 16:33N 29°45' W 095°06'0 0.0
2016-May-13 15:33N 29°45' W 095°06'0 0.0
2016-May-13 14:33N 29°45' W 095°06'0 0.0
2016-May-13 13:33N 29°45' W 095°06'0 0.0
2016-May-13 12:33N 29°45' W 095°06'0 0.0
2016-May-13 11:33N 29°45' W 095°06'0 0.0
2016-May-13 10:34N 29°45' W 095°06'0 0.0
2016-May-13 09:33N 29°45' W 095°06'0 0.0
2016-May-13 08:33N 29°45' W 095°06'0 0.0
2016-May-13 07:33N 29°45' W 095°06'0 0.0
2016-May-13 06:33N 29°45' W 095°06'0 0.0
2016-May-13 05:34N 29°45' W 095°06'0 0.0
2016-May-13 04:34N 29°45' W 095°06'0 0.0
2016-May-13 03:33N 29°45' W 095°06'0 0.0
2016-May-13 02:33N 29°45' W 095°06'0 0.0
2016-May-13 01:33N 29°45' W 095°06'0 0.0
2016-May-13 00:33N 29°45' W 095°06'0 0.0
2016-May-12 23:33N 29°45' W 095°06'0 0.0
2016-May-12 22:33N 29°45' W 095°06'0 0.0
2016-May-12 21:32N 29°45' W 095°06'0 0.0
2016-May-12 19:33N 29°45' W 095°06'0 0.0
2016-May-12 18:33N 29°45' W 095°06'0 0.0
2016-May-12 17:33N 29°45' W 095°06'0 0.0
2016-May-12 16:33N 29°45' W 095°06'0 0.0
2016-May-12 15:33N 29°45' W 095°06'0 0.0
2016-May-12 14:33N 29°45' W 095°06'0 0.0
2016-May-12 13:33N 29°45' W 095°06'0 0.0
2016-May-12 12:33N 29°45' W 095°06'0 0.0
2016-May-12 11:33N 29°45' W 095°06'0 0.0
2016-May-12 10:33N 29°45' W 095°06'0 0.0
2016-May-12 09:33N 29°45' W 095°06'0 0.0
2016-May-12 08:33N 29°45' W 095°06'0 0.0
2016-May-12 07:33N 29°45' W 095°06'0 0.0
2016-May-12 06:33N 29°45' W 095°06'0 0.0
2016-May-12 05:33N 29°45' W 095°06'0 0.0
2016-May-12 04:33N 29°45' W 095°06'0 0.0
2016-May-12 03:33N 29°45' W 095°06'0 0.0
2016-May-12 02:33N 29°45' W 095°06'0 0.0
2016-May-12 01:33N 29°45' W 095°06'2 0.1
2016-May-11 07:32N 29°44' W 095°08'5 5.1
2016-May-11 06:33N 29°44' W 095°02'1010.3
2016-May-11 05:33N 29°35' W 094°56'1312.4
2016-May-11 04:30N 29°24' W 094°49'1111.0
2016-May-11 03:28N 29°19' W 094°37'4 4.5
2016-May-11 02:28N 29°21' W 094°33'0 0.0
2016-May-11 01:33N 29°21' W 094°33'0 0.0
2016-May-11 00:32N 29°21' W 094°33'0 0.0
2016-May-10 23:32N 29°21' W 094°33'0 0.0
2016-May-10 21:30N 29°21' W 094°33'0 0.0
2016-May-10 20:19N 29°21' W 094°33'0 0.0
2016-May-10 19:31N 29°21' W 094°33'0 0.0
2016-May-10 08:09N 29°21' W 094°33'15 5.9
2016-May-10 05:32N 29°25' W 094°50'1313.3
2016-May-10 04:34N 29°36' W 094°57'4 3.5
2016-May-10 03:32N 29°37' W 095°01'0 0.0
2016-May-10 02:32N 29°37' W 095°01'0 0.0
2016-May-10 01:29N 29°37' W 095°01'0 0.0
2016-May-10 00:32N 29°37' W 095°01'0 0.0
2016-May-09 23:28N 29°37' W 095°01'0 0.0
2016-May-09 22:28N 29°37' W 095°01'0 0.0
2016-May-09 21:28N 29°37' W 095°01'0 0.0
2016-May-09 18:31N 29°37' W 095°01'0 0.0
2016-May-09 17:13N 29°37' W 095°01'0 0.0
2016-May-09 16:31N 29°37' W 095°01'0 0.0
2016-May-09 15:31N 29°37' W 095°01'0 0.0
2016-May-09 14:31N 29°37' W 095°01'0 0.0
2016-May-09 13:22N 29°37' W 095°01'0 0.0
2016-May-09 12:31N 29°37' W 095°01'0 0.0
2016-May-09 11:28N 29°37' W 095°01'0 0.0
2016-May-09 10:31N 29°37' W 095°01'0 0.0
2016-May-09 09:31N 29°37' W 095°01'0 0.0
2016-May-09 08:22N 29°37' W 095°01'0 0.0
2016-May-09 07:22N 29°37' W 095°01'0 0.0
2016-May-09 06:22N 29°37' W 095°01'0 0.0
2016-May-09 05:31N 29°37' W 095°01'0 0.0
2016-May-09 04:28N 29°37' W 095°01'0 0.0
2016-May-09 03:16N 29°37' W 095°01'0 0.0
2016-May-09 02:22N 29°37' W 095°01'0 0.0
2016-May-09 01:33N 29°37' W 095°01'0 0.0
2016-May-09 00:28N 29°37' W 095°01'0 0.0
2016-May-08 23:25N 29°37' W 095°01'0 0.0
2016-May-08 22:25N 29°37' W 095°01'0 0.0
2016-May-08 21:25N 29°37' W 095°01'0 0.0
2016-May-08 20:31N 29°37' W 095°01'0 0.0
2016-May-08 19:28N 29°37' W 095°01'0 0.0
2016-May-08 18:31N 29°37' W 095°01'0 0.0
2016-May-08 17:07N 29°37' W 095°01'0 0.0
2016-May-08 16:07N 29°37' W 095°01'0 0.0
2016-May-08 15:31N 29°37' W 095°01'0 0.0
2016-May-08 14:28N 29°37' W 095°01'0 0.0
2016-May-08 13:22N 29°37' W 095°01'0 0.0
2016-May-08 11:25N 29°37' W 095°01'0 0.0
2016-May-08 10:28N 29°37' W 095°01'0 0.0
2016-May-08 09:33N 29°37' W 095°01'1 1.2
2016-May-08 08:33N 29°37' W 094°60'10 9.7
2016-May-08 07:32N 29°30' W 094°52'  

Dump ship's entire track history